N282WB LWSK-LIPH
Flight info
| Callsign | N282WB |
|---|---|
| Flight time | N/A |
| Altitude | 43000 |
| Route | GOSTI DCT MAVAR DCT LABIN/N0354F180 L614 CHI N503 INBUT |
| Aircraft | C25B/M-SDE2E3FGHRWXY/LB1 |
Departure
| Time | N/A |
|---|---|
| Airport | Skopje International Airport (LWSK) |
Arrival
| Time | 2026-04-22 20:34 |
|---|---|
| Airport | Treviso Airport (LIPH) |
| Time | Latitude | Longitude | Altitude | Speed | Heading |
|---|---|---|---|---|---|
| 2026-04-22 20:01 | 44.26483 | 14.87947 | 43175 ft | 333 kts | 302° |
| 2026-04-22 20:01 | 44.27646 | 14.85147 | 43176 ft | 333 kts | 302° |
| 2026-04-22 20:02 | 44.29970 | 14.79549 | 43174 ft | 333 kts | 302° |
| 2026-04-22 20:02 | 44.32294 | 14.73944 | 43177 ft | 334 kts | 302° |
| 2026-04-22 20:03 | 44.34619 | 14.68326 | 43181 ft | 334 kts | 302° |
| 2026-04-22 20:03 | 44.36926 | 14.62741 | 43184 ft | 334 kts | 302° |
| 2026-04-22 20:04 | 44.39248 | 14.57106 | 43182 ft | 334 kts | 302° |
| 2026-04-22 20:04 | 44.41566 | 14.51467 | 43185 ft | 334 kts | 302° |
| 2026-04-22 20:05 | 44.43883 | 14.45819 | 43189 ft | 335 kts | 302° |
| 2026-04-22 20:05 | 44.46198 | 14.40167 | 43190 ft | 335 kts | 302° |
| 2026-04-22 20:06 | 44.48514 | 14.34501 | 43192 ft | 335 kts | 302° |
| 2026-04-22 20:06 | 44.50829 | 14.28828 | 43190 ft | 336 kts | 302° |
| 2026-04-22 20:07 | 44.53146 | 14.23140 | 43195 ft | 336 kts | 302° |
| 2026-04-22 20:07 | 44.55447 | 14.17478 | 43196 ft | 337 kts | 302° |
| 2026-04-22 20:08 | 44.57773 | 14.11743 | 42929 ft | 345 kts | 302° |
| 2026-04-22 20:08 | 44.58983 | 14.08755 | 42469 ft | 358 kts | 302° |
| 2026-04-22 20:08 | 44.60235 | 14.05661 | 41981 ft | 370 kts | 302° |
| 2026-04-22 20:08 | 44.61521 | 14.02477 | 41484 ft | 380 kts | 302° |
| 2026-04-22 20:09 | 44.62835 | 13.99214 | 40970 ft | 385 kts | 302° |
| 2026-04-22 20:09 | 44.64156 | 13.95941 | 40461 ft | 385 kts | 302° |
| 2026-04-22 20:09 | 44.65473 | 13.92662 | 39951 ft | 384 kts | 302° |
| 2026-04-22 20:09 | 44.66787 | 13.89401 | 39443 ft | 383 kts | 302° |
| 2026-04-22 20:10 | 44.68076 | 13.86188 | 38950 ft | 381 kts | 302° |
| 2026-04-22 20:10 | 44.69373 | 13.82958 | 38389 ft | 377 kts | 302° |
| 2026-04-22 20:10 | 44.70651 | 13.79766 | 37899 ft | 372 kts | 302° |
| 2026-04-22 20:10 | 44.71916 | 13.76606 | 37413 ft | 368 kts | 301° |
| 2026-04-22 20:11 | 44.73167 | 13.73480 | 36914 ft | 364 kts | 301° |
| 2026-04-22 20:11 | 44.74400 | 13.70389 | 36450 ft | 360 kts | 301° |
| 2026-04-22 20:11 | 44.75622 | 13.67331 | 36000 ft | 357 kts | 301° |
| 2026-04-22 20:11 | 44.76834 | 13.64286 | 35516 ft | 358 kts | 301° |
| 2026-04-22 20:12 | 44.78062 | 13.61209 | 35042 ft | 363 kts | 301° |
| 2026-04-22 20:12 | 44.79285 | 13.58127 | 34564 ft | 367 kts | 301° |
| 2026-04-22 20:12 | 44.80539 | 13.54977 | 34062 ft | 370 kts | 301° |
| 2026-04-22 20:12 | 44.81793 | 13.51804 | 33541 ft | 371 kts | 301° |
| 2026-04-22 20:13 | 44.83051 | 13.48640 | 33051 ft | 370 kts | 301° |
| 2026-04-22 20:13 | 44.84303 | 13.45469 | 32563 ft | 371 kts | 301° |
| 2026-04-22 20:13 | 44.85569 | 13.42278 | 32035 ft | 376 kts | 301° |
| 2026-04-22 20:13 | 44.86842 | 13.39043 | 31561 ft | 377 kts | 301° |
| 2026-04-22 20:14 | 44.88124 | 13.35804 | 31067 ft | 378 kts | 302° |
| 2026-04-22 20:14 | 44.89402 | 13.32550 | 30562 ft | 379 kts | 302° |
| 2026-04-22 20:14 | 44.90665 | 13.29348 | 30033 ft | 378 kts | 302° |
| 2026-04-22 20:14 | 44.91948 | 13.26064 | 29523 ft | 375 kts | 302° |
| 2026-04-22 20:15 | 44.93225 | 13.22842 | 29021 ft | 378 kts | 302° |
| 2026-04-22 20:15 | 44.94484 | 13.19625 | 28537 ft | 381 kts | 302° |
| 2026-04-22 20:15 | 44.95772 | 13.16338 | 28033 ft | 384 kts | 302° |
| 2026-04-22 20:15 | 44.97052 | 13.13053 | 27530 ft | 386 kts | 301° |
| 2026-04-22 20:16 | 44.98151 | 13.09575 | 27017 ft | 391 kts | 294° |
| 2026-04-22 20:16 | 44.98916 | 13.05865 | 26499 ft | 396 kts | 287° |
| 2026-04-22 20:16 | 44.99345 | 13.02002 | 25981 ft | 399 kts | 283° |
| 2026-04-22 20:16 | 44.99776 | 12.98125 | 25456 ft | 400 kts | 283° |
| 2026-04-22 20:17 | 45.00203 | 12.94224 | 24922 ft | 402 kts | 283° |
| 2026-04-22 20:17 | 45.00622 | 12.90309 | 24391 ft | 404 kts | 283° |
| 2026-04-22 20:17 | 45.01035 | 12.86370 | 23860 ft | 405 kts | 283° |
| 2026-04-22 20:17 | 45.01458 | 12.82434 | 23281 ft | 406 kts | 283° |
| 2026-04-22 20:18 | 45.01876 | 12.78499 | 22744 ft | 405 kts | 283° |
| 2026-04-22 20:18 | 45.02294 | 12.74560 | 22210 ft | 405 kts | 283° |
| 2026-04-22 20:18 | 45.02710 | 12.70624 | 21668 ft | 405 kts | 282° |
| 2026-04-22 20:18 | 45.03123 | 12.66695 | 21143 ft | 404 kts | 283° |
| 2026-04-22 20:19 | 45.03538 | 12.62763 | 20613 ft | 405 kts | 282° |
| 2026-04-22 20:19 | 45.03948 | 12.58816 | 20080 ft | 405 kts | 282° |
| 2026-04-22 20:19 | 45.04358 | 12.54922 | 19544 ft | 406 kts | 282° |
| 2026-04-22 20:19 | 45.04764 | 12.50964 | 19017 ft | 406 kts | 282° |
| 2026-04-22 20:20 | 45.05178 | 12.47010 | 18477 ft | 407 kts | 282° |
| 2026-04-22 20:20 | 45.05583 | 12.43045 | 17910 ft | 407 kts | 282° |
| 2026-04-22 20:20 | 45.05993 | 12.39091 | 17374 ft | 406 kts | 282° |
| 2026-04-22 20:20 | 45.06499 | 12.35178 | 16834 ft | 401 kts | 288° |
| 2026-04-22 20:21 | 45.07451 | 12.31502 | 16308 ft | 397 kts | 296° |
| 2026-04-22 20:21 | 45.08784 | 12.28118 | 15788 ft | 392 kts | 306° |
| 2026-04-22 20:21 | 45.10446 | 12.25105 | 15273 ft | 384 kts | 315° |
| 2026-04-22 20:21 | 45.12385 | 12.22560 | 14775 ft | 377 kts | 323° |
| 2026-04-22 20:22 | 45.14483 | 12.20370 | 14282 ft | 373 kts | 326° |
| 2026-04-22 20:22 | 45.16554 | 12.18152 | 13766 ft | 372 kts | 325° |
| 2026-04-22 20:22 | 45.18614 | 12.15947 | 13267 ft | 369 kts | 326° |
| 2026-04-22 20:22 | 45.20635 | 12.13798 | 12781 ft | 366 kts | 326° |
| 2026-04-22 20:23 | 45.22670 | 12.11644 | 12303 ft | 364 kts | 326° |
| 2026-04-22 20:23 | 45.24689 | 12.09495 | 11825 ft | 362 kts | 325° |
| 2026-04-22 20:23 | 45.26693 | 12.07352 | 11348 ft | 360 kts | 326° |
| 2026-04-22 20:23 | 45.28694 | 12.05224 | 10872 ft | 358 kts | 326° |
| 2026-04-22 20:24 | 45.30709 | 12.03078 | 10398 ft | 357 kts | 326° |
| 2026-04-22 20:24 | 45.32671 | 12.00999 | 9918 ft | 356 kts | 325° |
| 2026-04-22 20:24 | 45.34647 | 11.98886 | 9428 ft | 355 kts | 325° |
| 2026-04-22 20:24 | 45.36632 | 11.96778 | 8962 ft | 355 kts | 325° |
| 2026-04-22 20:25 | 45.38608 | 11.94659 | 8497 ft | 356 kts | 325° |
| 2026-04-22 20:25 | 45.40571 | 11.92572 | 8040 ft | 347 kts | 325° |
| 2026-04-22 20:25 | 45.42473 | 11.90527 | 7581 ft | 338 kts | 325° |
| 2026-04-22 20:25 | 45.44335 | 11.88533 | 7141 ft | 325 kts | 325° |
| 2026-04-22 20:26 | 45.46035 | 11.86693 | 6734 ft | 290 kts | 325° |
| 2026-04-22 20:26 | 45.47699 | 11.85360 | 6236 ft | 264 kts | 343° |
| 2026-04-22 20:26 | 45.49300 | 11.84749 | 5839 ft | 212 kts | 352° |
| 2026-04-22 20:26 | 45.50734 | 11.84644 | 5562 ft | 201 kts | 4° |
| 2026-04-22 20:27 | 45.52121 | 11.84900 | 5301 ft | 205 kts | 15° |
| 2026-04-22 20:27 | 45.53438 | 11.85519 | 5045 ft | 195 kts | 25° |
| 2026-04-22 20:27 | 45.54605 | 11.86443 | 4789 ft | 189 kts | 34° |
| 2026-04-22 20:27 | 45.55612 | 11.87605 | 4543 ft | 184 kts | 45° |
| 2026-04-22 20:28 | 45.56454 | 11.88969 | 4300 ft | 182 kts | 54° |
| 2026-04-22 20:28 | 45.57096 | 11.90478 | 4065 ft | 175 kts | 62° |
| 2026-04-22 20:28 | 45.57565 | 11.92103 | 3868 ft | 178 kts | 70° |
| 2026-04-22 20:28 | 45.58024 | 11.93751 | 3640 ft | 177 kts | 67° |
| 2026-04-22 20:29 | 45.58454 | 11.95315 | 3413 ft | 164 kts | 69° |
| 2026-04-22 20:29 | 45.58848 | 11.96800 | 3193 ft | 157 kts | 69° |
| 2026-04-22 20:29 | 45.59225 | 11.98233 | 2983 ft | 153 kts | 70° |
| 2026-04-22 20:29 | 45.59599 | 11.99643 | 2779 ft | 151 kts | 67° |
| 2026-04-22 20:30 | 45.59977 | 12.01037 | 2574 ft | 150 kts | 71° |
| 2026-04-22 20:30 | 45.60333 | 12.02434 | 2370 ft | 149 kts | 67° |
| 2026-04-22 20:30 | 45.60714 | 12.03790 | 2166 ft | 149 kts | 70° |
| 2026-04-22 20:30 | 45.61058 | 12.05179 | 1970 ft | 147 kts | 68° |
| 2026-04-22 20:31 | 45.61416 | 12.06437 | 1790 ft | 128 kts | 69° |
| 2026-04-22 20:31 | 45.61697 | 12.07587 | 1616 ft | 119 kts | 69° |
| 2026-04-22 20:31 | 45.62005 | 12.08647 | 1452 ft | 113 kts | 68° |
| 2026-04-22 20:31 | 45.62255 | 12.09693 | 1302 ft | 110 kts | 70° |
| 2026-04-22 20:32 | 45.62551 | 12.10699 | 1158 ft | 110 kts | 68° |
| 2026-04-22 20:32 | 45.62799 | 12.11737 | 1015 ft | 111 kts | 72° |
| 2026-04-22 20:32 | 45.63091 | 12.12755 | 872 ft | 110 kts | 66° |
| 2026-04-22 20:32 | 45.63347 | 12.13788 | 728 ft | 110 kts | 71° |
| 2026-04-22 20:33 | 45.63616 | 12.14815 | 570 ft | 110 kts | 66° |
| 2026-04-22 20:33 | 45.63896 | 12.15834 | 414 ft | 110 kts | 68° |
| 2026-04-22 20:33 | 45.64167 | 12.16850 | 280 ft | 108 kts | 68° |
| 2026-04-22 20:33 | 45.64429 | 12.17835 | 147 ft | 106 kts | 67° |
| 2026-04-22 20:34 | 45.64676 | 12.18741 | 60 ft | 88 kts | 68° |
| 2026-04-22 20:34 | 45.64852 | 12.19414 | 58 ft | 53 kts | 69° |
| 2026-04-22 20:34 | 45.64958 | 12.19811 | 56 ft | 36 kts | 69° |
| 2026-04-22 20:34 | 45.65031 | 12.20082 | 57 ft | 19 kts | 63° |
| 2026-04-22 20:35 | 45.65094 | 12.20187 | 54 ft | 14 kts | 36° |
| 2026-04-22 20:35 | 45.65156 | 12.20237 | 57 ft | 8 kts | 25° |
| 2026-04-22 20:35 | 45.65193 | 12.20262 | 55 ft | 3 kts | 24° |
| 2026-04-22 20:35 | 45.65217 | 12.20278 | 58 ft | 5 kts | 23° |
| 2026-04-22 20:36 | 45.65254 | 12.20301 | 58 ft | 7 kts | 11° |
| 2026-04-22 20:36 | 45.65311 | 12.20281 | 56 ft | 10 kts | 340° |
| 2026-04-22 20:36 | 45.65334 | 12.20270 | 55 ft | 0 kts | 340° |